PAEI METAR and TAF weather

Enter ICAO airport designator
Station Type Date Time Source
PAEI METAR 2020/01/22 17:56 UTC NOAA

PAEI 221756Z 00000KT 7SM SCT008 BKN035 M22/M25 A2969 RMK AO2A SNE1756 SLP075 60000 4/018 T12171252 11212 21244 52014 $


Station Type Date Time Source
PAEI Decoded METAR 2020/01/22 17:56 UTC NOAA

Fairbanks, Eielson Air Force Base, AK, United States (PAEI) 64-39N 147-06W 167M
Jan 22, 2020 - 12:56 PM EST / 2020.01.22 1756 UTC
Wind: Calm:0
Visibility: 7 mile(s):0
Sky conditions: mostly cloudy
Weather: 18 inches of snow on ground
Temperature: -7.1 F (-21.7 C)
Dew Point: -13.4 F (-25.2 C)
Relative Humidity: 73%
Pressure (altimeter): 29.69 in. Hg (1005 hPa)
Pressure tendency: 0.04 inches (1.4 hPa) higher than three hours ago
ob: PAEI 221756Z 00000KT 7SM SCT008 BKN035 M22/M25 A2969 RMK AO2A SNE1756 SLP075 60000 4/018 T12171252 11212 21244 52014
cycle: 18

Station Type Date Time Source
PAEI TAF 2020/01/22 14:10 UTC NOAA

TAF PAEI 221402Z 2214/2320 VRB03KT 8000 -SN SCT010 BKN040 OVC065 620406 QNH2960INS
BECMG 2214/2215 VRB03KT 6000 -SN SCT010 OVC050 620505 QNH2965INS
TEMPO 2215/2222 4800 -SN BKN010 620109
BECMG 2221/2222 VRB03KT 8000 -SHSN SCT015 OVC030 610307 QNH2969INS
BECMG 2302/2303 VRB03KT 9999 VCSH SCT015 OVC030 610305 QNH2979INS TXM20/2220Z TNM28/2306Z

Example: see airport list